sensor_id;sensor_type;location;lat;lon;timestamp;temperature;humidity
29255;DHT22;16277;48.890;2.306;2023-12-20T00:02:42;12.20;99.90
29255;DHT22;16277;48.890;2.306;2023-12-20T00:18:08;12.00;99.90
29255;DHT22;16277;48.890;2.306;2023-12-20T00:33:12;12.00;99.90
29255;DHT22;16277;48.890;2.306;2023-12-20T00:48:17;11.30;99.90
29255;DHT22;16277;48.890;2.306;2023-12-20T01:03:22;11.50;99.90
29255;DHT22;16277;48.890;2.306;2023-12-20T01:18:26;11.40;99.90
29255;DHT22;16277;48.890;2.306;2023-12-20T01:33:31;11.10;99.90
29255;DHT22;16277;48.890;2.306;2023-12-20T01:48:35;11.60;99.90
29255;DHT22;16277;48.890;2.306;2023-12-20T02:03:40;11.70;99.90
29255;DHT22;16277;48.890;2.306;2023-12-20T02:18:45;10.90;99.90
29255;DHT22;16277;48.890;2.306;2023-12-20T02:33:50;11.40;99.90
29255;DHT22;16277;48.890;2.306;2023-12-20T02:48:55;11.20;99.90
29255;DHT22;16277;48.890;2.306;2023-12-20T03:03:59;11.30;99.90
29255;DHT22;16277;48.890;2.306;2023-12-20T03:19:04;11.30;99.90
29255;DHT22;16277;48.890;2.306;2023-12-20T03:34:08;10.80;99.90
29255;DHT22;16277;48.890;2.306;2023-12-20T03:49:14;10.70;99.90
29255;DHT22;16277;48.890;2.306;2023-12-20T04:04:19;10.60;99.90
29255;DHT22;16277;48.890;2.306;2023-12-20T04:19:23;11.00;99.90
29255;DHT22;16277;48.890;2.306;2023-12-20T04:34:28;10.60;99.90
29255;DHT22;16277;48.890;2.306;2023-12-20T04:49:51;10.70;99.90
29255;DHT22;16277;48.890;2.306;2023-12-20T05:04:55;10.50;99.90
29255;DHT22;16277;48.890;2.306;2023-12-20T05:20:00;10.80;99.90
29255;DHT22;16277;48.890;2.306;2023-12-20T05:35:05;10.70;99.90
29255;DHT22;16277;48.890;2.306;2023-12-20T05:50:11;10.70;99.90
29255;DHT22;16277;48.890;2.306;2023-12-20T06:05:15;10.90;99.90
29255;DHT22;16277;48.890;2.306;2023-12-20T06:20:20;10.80;99.90
29255;DHT22;16277;48.890;2.306;2023-12-20T06:35:25;10.80;99.90
29255;DHT22;16277;48.890;2.306;2023-12-20T06:50:29;10.50;99.90
29255;DHT22;16277;48.890;2.306;2023-12-20T07:05:34;10.60;99.90
29255;DHT22;16277;48.890;2.306;2023-12-20T07:20:38;10.80;99.90
29255;DHT22;16277;48.890;2.306;2023-12-20T07:35:43;11.10;99.90
29255;DHT22;16277;48.890;2.306;2023-12-20T07:50:48;10.60;99.90
29255;DHT22;16277;48.890;2.306;2023-12-20T08:05:53;10.70;99.90
29255;DHT22;16277;48.890;2.306;2023-12-20T08:20:58;10.80;99.90
29255;DHT22;16277;48.890;2.306;2023-12-20T08:36:04;10.50;99.90
29255;DHT22;16277;48.890;2.306;2023-12-20T08:51:08;10.90;99.90
29255;DHT22;16277;48.890;2.306;2023-12-20T09:06:14;11.00;99.90
29255;DHT22;16277;48.890;2.306;2023-12-20T09:21:19;11.00;99.90
29255;DHT22;16277;48.890;2.306;2023-12-20T09:36:23;11.20;99.90
29255;DHT22;16277;48.890;2.306;2023-12-20T09:51:29;11.40;99.90
29255;DHT22;16277;48.890;2.306;2023-12-20T10:06:52;11.00;99.90
29255;DHT22;16277;48.890;2.306;2023-12-20T10:21:57;11.20;99.90
29255;DHT22;16277;48.890;2.306;2023-12-20T10:37:02;11.00;99.90
29255;DHT22;16277;48.890;2.306;2023-12-20T10:52:07;11.40;99.90
29255;DHT22;16277;48.890;2.306;2023-12-20T11:07:35;11.40;99.90
29255;DHT22;16277;48.890;2.306;2023-12-20T11:22:52;11.40;99.90
29255;DHT22;16277;48.890;2.306;2023-12-20T11:37:58;11.40;99.90
29255;DHT22;16277;48.890;2.306;2023-12-20T11:53:03;11.50;99.90
29255;DHT22;16277;48.890;2.306;2023-12-20T12:08:08;11.60;99.90
29255;DHT22;16277;48.890;2.306;2023-12-20T12:23:13;11.70;99.90
29255;DHT22;16277;48.890;2.306;2023-12-20T12:38:20;11.60;99.90
29255;DHT22;16277;48.890;2.306;2023-12-20T12:53:24;11.70;99.90
29255;DHT22;16277;48.890;2.306;2023-12-20T13:08:29;12.20;99.90
29255;DHT22;16277;48.890;2.306;2023-12-20T13:23:34;12.30;99.90
29255;DHT22;16277;48.890;2.306;2023-12-20T13:38:43;12.10;99.90
29255;DHT22;16277;48.890;2.306;2023-12-20T13:53:48;12.40;99.90
29255;DHT22;16277;48.890;2.306;2023-12-20T14:08:52;12.40;99.90
29255;DHT22;16277;48.890;2.306;2023-12-20T14:23:57;12.30;99.90
29255;DHT22;16277;48.890;2.306;2023-12-20T14:39:02;12.00;99.90
29255;DHT22;16277;48.890;2.306;2023-12-20T14:54:07;12.20;99.90
29255;DHT22;16277;48.890;2.306;2023-12-20T15:09:13;12.20;99.90
29255;DHT22;16277;48.890;2.306;2023-12-20T15:24:18;12.40;99.90
29255;DHT22;16277;48.890;2.306;2023-12-20T15:39:30;12.20;99.90
29255;DHT22;16277;48.890;2.306;2023-12-20T15:54:36;12.30;99.90
29255;DHT22;16277;48.890;2.306;2023-12-20T16:09:42;12.30;99.90
29255;DHT22;16277;48.890;2.306;2023-12-20T16:24:47;12.30;99.90
29255;DHT22;16277;48.890;2.306;2023-12-20T16:39:51;12.20;99.90
29255;DHT22;16277;48.890;2.306;2023-12-20T16:54:56;12.40;99.90
29255;DHT22;16277;48.890;2.306;2023-12-20T17:10:00;12.50;99.90
29255;DHT22;16277;48.890;2.306;2023-12-20T17:25:06;12.50;99.90
29255;DHT22;16277;48.890;2.306;2023-12-20T17:40:11;12.30;99.90
29255;DHT22;16277;48.890;2.306;2023-12-20T17:55:16;12.60;99.90
29255;DHT22;16277;48.890;2.306;2023-12-20T18:10:20;12.30;99.90
29255;DHT22;16277;48.890;2.306;2023-12-20T18:25:25;12.20;99.90
29255;DHT22;16277;48.890;2.306;2023-12-20T18:40:31;12.50;99.90
29255;DHT22;16277;48.890;2.306;2023-12-20T18:55:35;12.50;99.90
29255;DHT22;16277;48.890;2.306;2023-12-20T19:10:40;12.90;99.90
29255;DHT22;16277;48.890;2.306;2023-12-20T19:25:45;12.70;99.90
29255;DHT22;16277;48.890;2.306;2023-12-20T19:40:49;12.60;99.90
29255;DHT22;16277;48.890;2.306;2023-12-20T19:55:54;12.70;99.90
29255;DHT22;16277;48.890;2.306;2023-12-20T20:10:58;12.60;99.90
29255;DHT22;16277;48.890;2.306;2023-12-20T20:26:03;12.60;99.90
29255;DHT22;16277;48.890;2.306;2023-12-20T20:41:09;12.60;99.90
29255;DHT22;16277;48.890;2.306;2023-12-20T20:56:13;12.40;99.90
29255;DHT22;16277;48.890;2.306;2023-12-20T21:11:18;12.50;99.90
29255;DHT22;16277;48.890;2.306;2023-12-20T21:26:24;12.70;99.90
29255;DHT22;16277;48.890;2.306;2023-12-20T21:41:28;12.60;99.90
29255;DHT22;16277;48.890;2.306;2023-12-20T21:56:33;12.30;99.90
29255;DHT22;16277;48.890;2.306;2023-12-20T22:11:39;12.60;99.90
29255;DHT22;16277;48.890;2.306;2023-12-20T22:26:44;12.50;99.90
29255;DHT22;16277;48.890;2.306;2023-12-20T22:41:48;12.60;99.90
29255;DHT22;16277;48.890;2.306;2023-12-20T22:56:53;12.50;99.90
29255;DHT22;16277;48.890;2.306;2023-12-20T23:11:58;12.70;99.90
29255;DHT22;16277;48.890;2.306;2023-12-20T23:27:03;12.30;99.90
29255;DHT22;16277;48.890;2.306;2023-12-20T23:42:08;12.60;99.90
29255;DHT22;16277;48.890;2.306;2023-12-20T23:57:12;12.20;99.90
